sensor_id;sensor_type;location;lat;lon;timestamp;P1;durP1;ratioP1;P2;durP2;ratioP2
62693;SDS011;48759;52.544;13.418;2024-02-26T00:01:43;16.10;;;11.53;;
62693;SDS011;48759;52.544;13.418;2024-02-26T00:04:11;19.00;;;12.03;;
62693;SDS011;48759;52.544;13.418;2024-02-26T00:06:38;17.50;;;10.77;;
62693;SDS011;48759;52.544;13.418;2024-02-26T00:09:06;19.00;;;11.23;;
62693;SDS011;48759;52.544;13.418;2024-02-26T00:11:35;14.50;;;9.80;;
62693;SDS011;48759;52.544;13.418;2024-02-26T00:14:03;21.80;;;12.50;;
62693;SDS011;48759;52.544;13.418;2024-02-26T00:16:30;20.33;;;12.70;;
62693;SDS011;48759;52.544;13.418;2024-02-26T00:18:57;22.63;;;12.70;;
62693;SDS011;48759;52.544;13.418;2024-02-26T00:21:25;18.10;;;12.50;;
62693;SDS011;48759;52.544;13.418;2024-02-26T00:23:52;20.47;;;12.30;;
62693;SDS011;48759;52.544;13.418;2024-02-26T00:26:20;15.63;;;12.53;;
62693;SDS011;48759;52.544;13.418;2024-02-26T00:28:46;19.33;;;12.50;;
62693;SDS011;48759;52.544;13.418;2024-02-26T00:31:13;16.30;;;11.03;;
62693;SDS011;48759;52.544;13.418;2024-02-26T00:33:39;18.53;;;11.20;;
62693;SDS011;48759;52.544;13.418;2024-02-26T00:36:06;17.13;;;11.27;;
62693;SDS011;48759;52.544;13.418;2024-02-26T00:38:34;16.83;;;11.20;;
62693;SDS011;48759;52.544;13.418;2024-02-26T00:41:01;17.97;;;11.73;;
62693;SDS011;48759;52.544;13.418;2024-02-26T00:43:27;19.37;;;11.90;;
62693;SDS011;48759;52.544;13.418;2024-02-26T00:45:54;17.73;;;11.23;;
62693;SDS011;48759;52.544;13.418;2024-02-26T00:48:20;18.43;;;11.87;;
62693;SDS011;48759;52.544;13.418;2024-02-26T00:50:47;15.10;;;10.77;;
62693;SDS011;48759;52.544;13.418;2024-02-26T00:53:13;17.30;;;12.40;;
62693;SDS011;48759;52.544;13.418;2024-02-26T00:55:41;14.73;;;10.40;;
62693;SDS011;48759;52.544;13.418;2024-02-26T00:58:07;16.23;;;10.83;;
62693;SDS011;48759;52.544;13.418;2024-02-26T01:00:34;15.10;;;11.30;;
62693;SDS011;48759;52.544;13.418;2024-02-26T01:03:00;16.20;;;10.70;;
62693;SDS011;48759;52.544;13.418;2024-02-26T01:05:28;16.03;;;11.33;;
62693;SDS011;48759;52.544;13.418;2024-02-26T01:07:54;15.80;;;10.50;;
62693;SDS011;48759;52.544;13.418;2024-02-26T01:10:21;17.43;;;11.10;;
62693;SDS011;48759;52.544;13.418;2024-02-26T01:12:49;12.40;;;10.47;;
62693;SDS011;48759;52.544;13.418;2024-02-26T01:15:15;14.80;;;9.73;;
62693;SDS011;48759;52.544;13.418;2024-02-26T01:17:43;13.87;;;10.43;;
62693;SDS011;48759;52.544;13.418;2024-02-26T01:20:10;17.00;;;10.40;;
62693;SDS011;48759;52.544;13.418;2024-02-26T01:22:37;15.03;;;10.37;;
62693;SDS011;48759;52.544;13.418;2024-02-26T01:25:03;13.40;;;10.10;;
62693;SDS011;48759;52.544;13.418;2024-02-26T01:27:30;12.27;;;9.40;;
62693;SDS011;48759;52.544;13.418;2024-02-26T01:29:58;14.53;;;9.57;;
62693;SDS011;48759;52.544;13.418;2024-02-26T01:32:24;13.03;;;9.47;;
62693;SDS011;48759;52.544;13.418;2024-02-26T01:34:51;11.77;;;9.57;;
62693;SDS011;48759;52.544;13.418;2024-02-26T01:37:17;12.77;;;8.20;;
62693;SDS011;48759;52.544;13.418;2024-02-26T01:39:43;11.83;;;8.83;;
62693;SDS011;48759;52.544;13.418;2024-02-26T01:42:10;15.83;;;8.70;;
62693;SDS011;48759;52.544;13.418;2024-02-26T01:44:36;10.70;;;9.20;;
62693;SDS011;48759;52.544;13.418;2024-02-26T01:47:05;12.90;;;8.87;;
62693;SDS011;48759;52.544;13.418;2024-02-26T01:49:31;14.80;;;10.00;;
62693;SDS011;48759;52.544;13.418;2024-02-26T01:51:58;14.33;;;10.10;;
62693;SDS011;48759;52.544;13.418;2024-02-26T01:54:24;11.80;;;9.33;;
62693;SDS011;48759;52.544;13.418;2024-02-26T01:56:52;10.73;;;8.87;;
62693;SDS011;48759;52.544;13.418;2024-02-26T01:59:19;13.93;;;8.30;;
62693;SDS011;48759;52.544;13.418;2024-02-26T02:01:47;9.20;;;7.47;;
62693;SDS011;48759;52.544;13.418;2024-02-26T02:04:16;8.57;;;7.53;;
62693;SDS011;48759;52.544;13.418;2024-02-26T02:06:43;8.50;;;7.60;;
62693;SDS011;48759;52.544;13.418;2024-02-26T02:09:11;8.30;;;7.50;;
62693;SDS011;48759;52.544;13.418;2024-02-26T02:11:38;8.23;;;7.17;;
62693;SDS011;48759;52.544;13.418;2024-02-26T02:14:04;10.80;;;6.77;;
62693;SDS011;48759;52.544;13.418;2024-02-26T02:16:31;6.90;;;6.20;;
62693;SDS011;48759;52.544;13.418;2024-02-26T02:18:57;9.73;;;6.77;;
62693;SDS011;48759;52.544;13.418;2024-02-26T02:21:25;10.13;;;7.40;;
62693;SDS011;48759;52.544;13.418;2024-02-26T02:23:52;8.27;;;6.57;;
62693;SDS011;48759;52.544;13.418;2024-02-26T02:26:18;13.90;;;7.43;;
62693;SDS011;48759;52.544;13.418;2024-02-26T02:28:45;7.60;;;6.17;;
62693;SDS011;48759;52.544;13.418;2024-02-26T02:31:12;7.57;;;6.57;;
62693;SDS011;48759;52.544;13.418;2024-02-26T02:33:38;9.20;;;6.27;;
62693;SDS011;48759;52.544;13.418;2024-02-26T02:36:05;8.23;;;6.40;;
62693;SDS011;48759;52.544;13.418;2024-02-26T02:38:36;8.20;;;6.30;;
62693;SDS011;48759;52.544;13.418;2024-02-26T02:41:03;12.90;;;7.27;;
62693;SDS011;48759;52.544;13.418;2024-02-26T02:43:29;6.90;;;6.17;;
62693;SDS011;48759;52.544;13.418;2024-02-26T02:45:56;9.00;;;6.20;;
62693;SDS011;48759;52.544;13.418;2024-02-26T02:48:22;7.77;;;6.20;;
62693;SDS011;48759;52.544;13.418;2024-02-26T02:50:48;7.10;;;6.33;;
62693;SDS011;48759;52.544;13.418;2024-02-26T02:53:17;6.80;;;6.10;;
62693;SDS011;48759;52.544;13.418;2024-02-26T02:55:45;6.23;;;5.60;;
62693;SDS011;48759;52.544;13.418;2024-02-26T02:58:12;7.93;;;6.30;;
62693;SDS011;48759;52.544;13.418;2024-02-26T03:00:38;6.53;;;5.83;;
62693;SDS011;48759;52.544;13.418;2024-02-26T03:03:04;6.20;;;5.40;;
62693;SDS011;48759;52.544;13.418;2024-02-26T03:05:31;6.97;;;6.27;;
62693;SDS011;48759;52.544;13.418;2024-02-26T03:07:57;6.73;;;5.60;;
62693;SDS011;48759;52.544;13.418;2024-02-26T03:10:24;6.50;;;5.83;;
62693;SDS011;48759;52.544;13.418;2024-02-26T03:12:53;6.10;;;5.37;;
62693;SDS011;48759;52.544;13.418;2024-02-26T03:15:19;8.90;;;6.23;;
62693;SDS011;48759;52.544;13.418;2024-02-26T03:17:46;6.93;;;5.80;;
62693;SDS011;48759;52.544;13.418;2024-02-26T03:20:12;9.60;;;7.33;;
62693;SDS011;48759;52.544;13.418;2024-02-26T03:22:40;6.03;;;5.43;;
62693;SDS011;48759;52.544;13.418;2024-02-26T03:25:06;7.33;;;5.60;;
62693;SDS011;48759;52.544;13.418;2024-02-26T03:27:33;10.63;;;5.83;;
62693;SDS011;48759;52.544;13.418;2024-02-26T03:30:01;7.20;;;5.67;;
62693;SDS011;48759;52.544;13.418;2024-02-26T03:32:28;8.67;;;6.80;;
62693;SDS011;48759;52.544;13.418;2024-02-26T03:34:55;7.33;;;6.00;;
62693;SDS011;48759;52.544;13.418;2024-02-26T03:37:21;5.87;;;5.37;;
62693;SDS011;48759;52.544;13.418;2024-02-26T03:39:47;8.10;;;5.93;;
62693;SDS011;48759;52.544;13.418;2024-02-26T03:42:14;6.20;;;5.60;;
62693;SDS011;48759;52.544;13.418;2024-02-26T03:44:41;7.03;;;5.60;;
62693;SDS011;48759;52.544;13.418;2024-02-26T03:47:09;8.30;;;6.20;;
62693;SDS011;48759;52.544;13.418;2024-02-26T03:49:37;7.30;;;6.00;;
62693;SDS011;48759;52.544;13.418;2024-02-26T03:52:04;7.37;;;6.07;;
62693;SDS011;48759;52.544;13.418;2024-02-26T03:54:30;8.50;;;5.73;;
62693;SDS011;48759;52.544;13.418;2024-02-26T03:56:57;6.67;;;6.07;;
62693;SDS011;48759;52.544;13.418;2024-02-26T03:59:23;6.97;;;5.57;;
62693;SDS011;48759;52.544;13.418;2024-02-26T04:01:50;8.57;;;6.60;;
62693;SDS011;48759;52.544;13.418;2024-02-26T04:04:18;10.60;;;6.87;;
62693;SDS011;48759;52.544;13.418;2024-02-26T04:06:44;7.30;;;6.30;;
62693;SDS011;48759;52.544;13.418;2024-02-26T04:09:10;8.43;;;6.47;;
62693;SDS011;48759;52.544;13.418;2024-02-26T04:11:37;8.67;;;6.60;;
62693;SDS011;48759;52.544;13.418;2024-02-26T04:14:03;14.70;;;6.67;;
62693;SDS011;48759;52.544;13.418;2024-02-26T04:16:31;12.30;;;7.00;;
62693;SDS011;48759;52.544;13.418;2024-02-26T04:18:57;10.90;;;6.90;;
62693;SDS011;48759;52.544;13.418;2024-02-26T04:21:25;9.60;;;7.90;;
62693;SDS011;48759;52.544;13.418;2024-02-26T04:23:51;10.60;;;7.07;;
62693;SDS011;48759;52.544;13.418;2024-02-26T04:26:20;11.50;;;8.30;;
62693;SDS011;48759;52.544;13.418;2024-02-26T04:28:46;15.40;;;8.10;;
62693;SDS011;48759;52.544;13.418;2024-02-26T04:31:13;10.80;;;8.40;;
62693;SDS011;48759;52.544;13.418;2024-02-26T04:33:39;10.13;;;7.70;;
62693;SDS011;48759;52.544;13.418;2024-02-26T04:36:11;12.43;;;7.73;;
62693;SDS011;48759;52.544;13.418;2024-02-26T04:38:39;11.00;;;7.93;;
62693;SDS011;48759;52.544;13.418;2024-02-26T04:41:06;13.40;;;8.07;;
62693;SDS011;48759;52.544;13.418;2024-02-26T04:43:32;11.03;;;7.80;;
62693;SDS011;48759;52.544;13.418;2024-02-26T04:45:58;10.83;;;7.87;;
62693;SDS011;48759;52.544;13.418;2024-02-26T04:48:26;10.27;;;7.73;;
62693;SDS011;48759;52.544;13.418;2024-02-26T04:50:52;10.93;;;7.50;;
62693;SDS011;48759;52.544;13.418;2024-02-26T04:53:19;9.77;;;6.90;;
62693;SDS011;48759;52.544;13.418;2024-02-26T04:55:46;11.10;;;9.03;;
62693;SDS011;48759;52.544;13.418;2024-02-26T04:58:13;14.03;;;9.40;;
62693;SDS011;48759;52.544;13.418;2024-02-26T05:00:39;13.00;;;9.97;;
62693;SDS011;48759;52.544;13.418;2024-02-26T05:03:06;14.60;;;10.00;;
62693;SDS011;48759;52.544;13.418;2024-02-26T05:05:33;12.37;;;9.90;;
62693;SDS011;48759;52.544;13.418;2024-02-26T05:07:59;11.13;;;10.00;;
62693;SDS011;48759;52.544;13.418;2024-02-26T05:10:25;12.30;;;10.37;;
62693;SDS011;48759;52.544;13.418;2024-02-26T05:12:54;14.33;;;9.90;;
62693;SDS011;48759;52.544;13.418;2024-02-26T05:15:20;13.87;;;9.90;;
62693;SDS011;48759;52.544;13.418;2024-02-26T05:17:46;13.80;;;9.20;;
62693;SDS011;48759;52.544;13.418;2024-02-26T05:20:13;19.70;;;9.77;;
62693;SDS011;48759;52.544;13.418;2024-02-26T05:22:39;14.87;;;9.27;;
62693;SDS011;48759;52.544;13.418;2024-02-26T05:25:06;12.83;;;8.60;;
62693;SDS011;48759;52.544;13.418;2024-02-26T05:27:33;12.37;;;9.60;;
62693;SDS011;48759;52.544;13.418;2024-02-26T05:30:01;10.93;;;8.20;;
62693;SDS011;48759;52.544;13.418;2024-02-26T05:32:28;11.70;;;8.07;;
62693;SDS011;48759;52.544;13.418;2024-02-26T05:34:55;14.40;;;9.57;;
62693;SDS011;48759;52.544;13.418;2024-02-26T05:37:21;9.87;;;8.23;;
62693;SDS011;48759;52.544;13.418;2024-02-26T05:39:48;11.03;;;8.20;;
62693;SDS011;48759;52.544;13.418;2024-02-26T05:42:14;11.87;;;9.03;;
62693;SDS011;48759;52.544;13.418;2024-02-26T05:44:40;13.60;;;9.60;;
62693;SDS011;48759;52.544;13.418;2024-02-26T05:47:08;11.80;;;8.70;;
62693;SDS011;48759;52.544;13.418;2024-02-26T05:49:35;12.90;;;9.00;;
62693;SDS011;48759;52.544;13.418;2024-02-26T05:52:01;12.23;;;8.80;;
62693;SDS011;48759;52.544;13.418;2024-02-26T05:54:28;12.77;;;9.63;;
62693;SDS011;48759;52.544;13.418;2024-02-26T05:56:54;12.83;;;9.30;;
62693;SDS011;48759;52.544;13.418;2024-02-26T05:59:21;15.17;;;10.53;;
62693;SDS011;48759;52.544;13.418;2024-02-26T06:01:47;11.13;;;9.60;;
62693;SDS011;48759;52.544;13.418;2024-02-26T06:04:15;14.03;;;10.20;;
62693;SDS011;48759;52.544;13.418;2024-02-26T06:06:42;12.50;;;9.87;;
62693;SDS011;48759;52.544;13.418;2024-02-26T06:09:08;13.23;;;10.50;;
62693;SDS011;48759;52.544;13.418;2024-02-26T06:11:36;12.17;;;9.90;;
62693;SDS011;48759;52.544;13.418;2024-02-26T06:14:02;13.77;;;10.00;;
62693;SDS011;48759;52.544;13.418;2024-02-26T06:16:29;15.83;;;10.90;;
62693;SDS011;48759;52.544;13.418;2024-02-26T06:18:55;15.50;;;11.37;;
62693;SDS011;48759;52.544;13.418;2024-02-26T06:21:23;17.20;;;11.43;;
62693;SDS011;48759;52.544;13.418;2024-02-26T06:23:49;19.53;;;11.50;;
62693;SDS011;48759;52.544;13.418;2024-02-26T06:26:16;17.93;;;10.83;;
62693;SDS011;48759;52.544;13.418;2024-02-26T06:28:42;20.50;;;11.40;;
62693;SDS011;48759;52.544;13.418;2024-02-26T06:31:09;17.33;;;12.20;;
62693;SDS011;48759;52.544;13.418;2024-02-26T06:33:36;17.17;;;11.40;;
62693;SDS011;48759;52.544;13.418;2024-02-26T06:36:02;19.67;;;11.77;;
62693;SDS011;48759;52.544;13.418;2024-02-26T06:38:31;18.40;;;12.40;;
62693;SDS011;48759;52.544;13.418;2024-02-26T06:40:57;16.77;;;11.73;;
62693;SDS011;48759;52.544;13.418;2024-02-26T06:43:23;18.83;;;11.77;;
62693;SDS011;48759;52.544;13.418;2024-02-26T06:45:50;18.60;;;12.40;;
62693;SDS011;48759;52.544;13.418;2024-02-26T06:48:16;22.13;;;12.70;;
62693;SDS011;48759;52.544;13.418;2024-02-26T06:50:43;20.03;;;12.40;;
62693;SDS011;48759;52.544;13.418;2024-02-26T06:53:12;19.77;;;12.70;;
62693;SDS011;48759;52.544;13.418;2024-02-26T06:55:40;22.10;;;14.40;;
62693;SDS011;48759;52.544;13.418;2024-02-26T06:58:06;24.03;;;13.50;;
62693;SDS011;48759;52.544;13.418;2024-02-26T07:00:33;17.40;;;12.30;;
62693;SDS011;48759;52.544;13.418;2024-02-26T07:02:59;23.30;;;14.67;;
62693;SDS011;48759;52.544;13.418;2024-02-26T07:05:26;22.07;;;13.70;;
62693;SDS011;48759;52.544;13.418;2024-02-26T07:07:53;18.93;;;12.60;;
62693;SDS011;48759;52.544;13.418;2024-02-26T07:10:19;19.53;;;13.37;;
62693;SDS011;48759;52.544;13.418;2024-02-26T07:12:47;20.20;;;14.43;;
62693;SDS011;48759;52.544;13.418;2024-02-26T07:15:14;23.47;;;14.03;;
62693;SDS011;48759;52.544;13.418;2024-02-26T07:17:41;18.83;;;13.50;;
62693;SDS011;48759;52.544;13.418;2024-02-26T07:20:12;19.43;;;12.93;;
62693;SDS011;48759;52.544;13.418;2024-02-26T07:22:38;17.37;;;12.73;;
62693;SDS011;48759;52.544;13.418;2024-02-26T07:25:05;19.80;;;13.30;;
62693;SDS011;48759;52.544;13.418;2024-02-26T07:27:32;18.97;;;13.40;;
62693;SDS011;48759;52.544;13.418;2024-02-26T07:30:00;19.50;;;12.67;;
62693;SDS011;48759;52.544;13.418;2024-02-26T07:32:27;18.10;;;12.80;;
62693;SDS011;48759;52.544;13.418;2024-02-26T07:34:53;20.30;;;13.17;;
62693;SDS011;48759;52.544;13.418;2024-02-26T07:37:21;19.00;;;13.10;;
62693;SDS011;48759;52.544;13.418;2024-02-26T07:39:47;20.47;;;12.67;;
62693;SDS011;48759;52.544;13.418;2024-02-26T07:42:14;17.47;;;12.50;;
62693;SDS011;48759;52.544;13.418;2024-02-26T07:44:40;19.83;;;14.07;;
62693;SDS011;48759;52.544;13.418;2024-02-26T07:47:09;19.43;;;14.30;;
62693;SDS011;48759;52.544;13.418;2024-02-26T07:49:35;18.37;;;12.57;;
62693;SDS011;48759;52.544;13.418;2024-02-26T07:52:02;18.70;;;13.93;;
62693;SDS011;48759;52.544;13.418;2024-02-26T07:54:28;26.27;;;13.47;;
62693;SDS011;48759;52.544;13.418;2024-02-26T07:56:55;17.93;;;13.07;;
62693;SDS011;48759;52.544;13.418;2024-02-26T07:59:21;23.53;;;13.97;;
62693;SDS011;48759;52.544;13.418;2024-02-26T08:01:49;22.30;;;13.90;;
62693;SDS011;48759;52.544;13.418;2024-02-26T08:04:17;23.70;;;14.30;;
62693;SDS011;48759;52.544;13.418;2024-02-26T08:06:43;25.00;;;14.90;;
62693;SDS011;48759;52.544;13.418;2024-02-26T08:09:10;20.30;;;13.20;;
62693;SDS011;48759;52.544;13.418;2024-02-26T08:11:37;17.23;;;13.90;;
62693;SDS011;48759;52.544;13.418;2024-02-26T08:14:04;19.83;;;14.83;;
62693;SDS011;48759;52.544;13.418;2024-02-26T08:16:30;17.73;;;13.73;;
62693;SDS011;48759;52.544;13.418;2024-02-26T08:18:57;24.30;;;15.07;;
62693;SDS011;48759;52.544;13.418;2024-02-26T08:21:25;21.30;;;13.40;;
62693;SDS011;48759;52.544;13.418;2024-02-26T08:23:51;17.93;;;14.20;;
62693;SDS011;48759;52.544;13.418;2024-02-26T08:26:18;25.07;;;14.60;;
62693;SDS011;48759;52.544;13.418;2024-02-26T08:28:45;19.93;;;14.43;;
62693;SDS011;48759;52.544;13.418;2024-02-26T08:31:12;25.43;;;14.80;;
62693;SDS011;48759;52.544;13.418;2024-02-26T08:33:39;18.80;;;13.70;;
62693;SDS011;48759;52.544;13.418;2024-02-26T08:36:05;22.43;;;14.53;;
62693;SDS011;48759;52.544;13.418;2024-02-26T08:38:33;21.10;;;14.73;;
62693;SDS011;48759;52.544;13.418;2024-02-26T08:41:00;18.90;;;15.33;;
62693;SDS011;48759;52.544;13.418;2024-02-26T08:43:27;20.33;;;14.70;;
62693;SDS011;48759;52.544;13.418;2024-02-26T08:45:54;20.80;;;15.97;;
62693;SDS011;48759;52.544;13.418;2024-02-26T08:48:21;23.80;;;15.33;;
62693;SDS011;48759;52.544;13.418;2024-02-26T08:50:47;25.03;;;15.70;;
62693;SDS011;48759;52.544;13.418;2024-02-26T08:53:13;24.07;;;15.40;;
62693;SDS011;48759;52.544;13.418;2024-02-26T08:55:41;26.10;;;16.43;;
62693;SDS011;48759;52.544;13.418;2024-02-26T08:58:08;18.57;;;14.30;;
62693;SDS011;48759;52.544;13.418;2024-02-26T09:00:34;21.67;;;15.90;;
62693;SDS011;48759;52.544;13.418;2024-02-26T09:03:00;18.83;;;15.70;;
62693;SDS011;48759;52.544;13.418;2024-02-26T09:05:27;23.53;;;15.73;;
62693;SDS011;48759;52.544;13.418;2024-02-26T09:07:53;21.90;;;15.07;;
62693;SDS011;48759;52.544;13.418;2024-02-26T09:10:20;20.03;;;15.07;;
62693;SDS011;48759;52.544;13.418;2024-02-26T09:12:48;21.20;;;15.63;;
62693;SDS011;48759;52.544;13.418;2024-02-26T09:15:14;20.60;;;16.20;;
62693;SDS011;48759;52.544;13.418;2024-02-26T09:17:40;21.50;;;15.60;;
62693;SDS011;48759;52.544;13.418;2024-02-26T09:20:07;22.87;;;14.80;;
62693;SDS011;48759;52.544;13.418;2024-02-26T09:22:35;19.73;;;15.73;;
62693;SDS011;48759;52.544;13.418;2024-02-26T09:25:03;20.80;;;15.73;;
62693;SDS011;48759;52.544;13.418;2024-02-26T09:27:29;21.27;;;14.73;;
62693;SDS011;48759;52.544;13.418;2024-02-26T09:29:58;18.47;;;14.40;;
62693;SDS011;48759;52.544;13.418;2024-02-26T09:32:24;21.03;;;15.07;;
62693;SDS011;48759;52.544;13.418;2024-02-26T09:34:51;20.30;;;15.90;;
62693;SDS011;48759;52.544;13.418;2024-02-26T09:37:17;19.23;;;15.60;;
62693;SDS011;48759;52.544;13.418;2024-02-26T09:39:44;18.70;;;14.63;;
62693;SDS011;48759;52.544;13.418;2024-02-26T09:42:11;18.83;;;14.27;;
62693;SDS011;48759;52.544;13.418;2024-02-26T09:44:39;19.63;;;15.00;;
62693;SDS011;48759;52.544;13.418;2024-02-26T09:47:09;20.73;;;15.93;;
62693;SDS011;48759;52.544;13.418;2024-02-26T09:49:36;21.67;;;14.63;;
62693;SDS011;48759;52.544;13.418;2024-02-26T09:52:03;22.03;;;14.80;;
62693;SDS011;48759;52.544;13.418;2024-02-26T09:54:30;21.93;;;14.83;;
62693;SDS011;48759;52.544;13.418;2024-02-26T09:56:57;19.03;;;14.73;;
62693;SDS011;48759;52.544;13.418;2024-02-26T09:59:25;20.00;;;14.07;;
62693;SDS011;48759;52.544;13.418;2024-02-26T10:01:52;21.57;;;15.10;;
62693;SDS011;48759;52.544;13.418;2024-02-26T10:04:20;19.10;;;15.40;;
62693;SDS011;48759;52.544;13.418;2024-02-26T10:06:47;17.70;;;13.80;;
62693;SDS011;48759;52.544;13.418;2024-02-26T10:09:14;18.50;;;14.20;;
62693;SDS011;48759;52.544;13.418;2024-02-26T10:11:41;19.13;;;14.63;;
62693;SDS011;48759;52.544;13.418;2024-02-26T10:14:08;18.23;;;13.40;;
62693;SDS011;48759;52.544;13.418;2024-02-26T10:16:35;19.90;;;14.90;;
62693;SDS011;48759;52.544;13.418;2024-02-26T10:19:01;19.23;;;13.73;;
62693;SDS011;48759;52.544;13.418;2024-02-26T10:21:29;19.73;;;13.47;;
62693;SDS011;48759;52.544;13.418;2024-02-26T10:23:55;25.43;;;14.63;;
62693;SDS011;48759;52.544;13.418;2024-02-26T10:26:22;16.70;;;13.53;;
62693;SDS011;48759;52.544;13.418;2024-02-26T10:28:48;17.17;;;12.60;;
62693;SDS011;48759;52.544;13.418;2024-02-26T10:31:15;18.20;;;13.93;;
62693;SDS011;48759;52.544;13.418;2024-02-26T10:33:42;19.50;;;13.27;;
62693;SDS011;48759;52.544;13.418;2024-02-26T10:36:09;16.80;;;13.50;;
62693;SDS011;48759;52.544;13.418;2024-02-26T10:38:37;19.87;;;13.50;;
62693;SDS011;48759;52.544;13.418;2024-02-26T10:41:04;19.47;;;12.10;;
62693;SDS011;48759;52.544;13.418;2024-02-26T10:43:32;15.20;;;12.20;;
62693;SDS011;48759;52.544;13.418;2024-02-26T10:45:58;14.70;;;11.57;;
62693;SDS011;48759;52.544;13.418;2024-02-26T10:48:24;14.90;;;11.80;;
62693;SDS011;48759;52.544;13.418;2024-02-26T10:50:51;17.13;;;12.37;;
62693;SDS011;48759;52.544;13.418;2024-02-26T10:53:19;14.50;;;11.87;;
62693;SDS011;48759;52.544;13.418;2024-02-26T10:55:48;15.27;;;11.70;;
62693;SDS011;48759;52.544;13.418;2024-02-26T10:58:14;14.90;;;11.27;;
62693;SDS011;48759;52.544;13.418;2024-02-26T11:00:42;15.67;;;11.70;;
62693;SDS011;48759;52.544;13.418;2024-02-26T11:03:10;15.00;;;12.30;;
62693;SDS011;48759;52.544;13.418;2024-02-26T11:05:37;15.00;;;12.90;;
62693;SDS011;48759;52.544;13.418;2024-02-26T11:08:05;16.37;;;12.50;;
62693;SDS011;48759;52.544;13.418;2024-02-26T11:10:31;21.00;;;12.90;;
62693;SDS011;48759;52.544;13.418;2024-02-26T11:13:00;15.40;;;11.63;;
62693;SDS011;48759;52.544;13.418;2024-02-26T11:15:27;16.23;;;12.40;;
62693;SDS011;48759;52.544;13.418;2024-02-26T11:17:54;14.83;;;11.27;;
62693;SDS011;48759;52.544;13.418;2024-02-26T11:20:21;21.73;;;11.33;;
62693;SDS011;48759;52.544;13.418;2024-02-26T11:22:49;15.80;;;12.27;;
62693;SDS011;48759;52.544;13.418;2024-02-26T11:25:15;15.97;;;13.07;;
62693;SDS011;48759;52.544;13.418;2024-02-26T11:27:43;16.80;;;12.70;;
62693;SDS011;48759;52.544;13.418;2024-02-26T11:30:12;14.30;;;12.43;;
62693;SDS011;48759;52.544;13.418;2024-02-26T11:32:39;14.70;;;12.47;;
62693;SDS011;48759;52.544;13.418;2024-02-26T11:35:05;17.87;;;13.47;;
62693;SDS011;48759;52.544;13.418;2024-02-26T11:37:33;16.43;;;13.40;;
62693;SDS011;48759;52.544;13.418;2024-02-26T11:39:59;19.73;;;13.33;;
62693;SDS011;48759;52.544;13.418;2024-02-26T11:42:26;19.00;;;14.13;;
62693;SDS011;48759;52.544;13.418;2024-02-26T11:44:53;17.57;;;14.13;;
62693;SDS011;48759;52.544;13.418;2024-02-26T11:47:22;14.10;;;12.60;;
62693;SDS011;48759;52.544;13.418;2024-02-26T11:49:49;18.00;;;13.43;;
62693;SDS011;48759;52.544;13.418;2024-02-26T11:52:15;18.03;;;13.73;;
62693;SDS011;48759;52.544;13.418;2024-02-26T11:54:45;20.80;;;15.30;;
62693;SDS011;48759;52.544;13.418;2024-02-26T11:57:22;17.13;;;13.77;;
62693;SDS011;48759;52.544;13.418;2024-02-26T11:59:48;23.77;;;16.50;;
62693;SDS011;48759;52.544;13.418;2024-02-26T12:04:58;20.73;;;14.50;;
62693;SDS011;48759;52.544;13.418;2024-02-26T12:07:25;21.33;;;15.27;;
62693;SDS011;48759;52.544;13.418;2024-02-26T12:09:51;19.43;;;15.17;;
62693;SDS011;48759;52.544;13.418;2024-02-26T12:12:18;18.43;;;14.77;;
62693;SDS011;48759;52.544;13.418;2024-02-26T12:14:50;18.27;;;13.43;;
62693;SDS011;48759;52.544;13.418;2024-02-26T12:17:18;18.00;;;15.60;;
62693;SDS011;48759;52.544;13.418;2024-02-26T12:19:45;17.40;;;14.07;;
62693;SDS011;48759;52.544;13.418;2024-02-26T12:22:13;18.13;;;14.10;;
62693;SDS011;48759;52.544;13.418;2024-02-26T12:24:40;25.87;;;14.50;;
62693;SDS011;48759;52.544;13.418;2024-02-26T12:27:07;18.60;;;12.97;;
62693;SDS011;48759;52.544;13.418;2024-02-26T12:29:33;18.73;;;13.57;;
62693;SDS011;48759;52.544;13.418;2024-02-26T12:32:00;17.17;;;13.93;;
62693;SDS011;48759;52.544;13.418;2024-02-26T12:34:28;17.80;;;13.83;;
62693;SDS011;48759;52.544;13.418;2024-02-26T12:36:54;14.40;;;12.30;;
62693;SDS011;48759;52.544;13.418;2024-02-26T12:39:22;16.13;;;12.80;;
62693;SDS011;48759;52.544;13.418;2024-02-26T12:41:49;18.37;;;12.43;;
62693;SDS011;48759;52.544;13.418;2024-02-26T12:44:15;15.90;;;12.27;;
62693;SDS011;48759;52.544;13.418;2024-02-26T12:46:42;14.30;;;11.07;;
62693;SDS011;48759;52.544;13.418;2024-02-26T12:49:08;14.00;;;10.90;;
62693;SDS011;48759;52.544;13.418;2024-02-26T12:51:35;11.67;;;10.43;;
62693;SDS011;48759;52.544;13.418;2024-02-26T12:54:01;14.03;;;11.33;;
62693;SDS011;48759;52.544;13.418;2024-02-26T12:56:29;12.77;;;9.70;;
62693;SDS011;48759;52.544;13.418;2024-02-26T12:58:56;13.00;;;9.40;;
62693;SDS011;48759;52.544;13.418;2024-02-26T13:01:23;11.73;;;9.03;;
62693;SDS011;48759;52.544;13.418;2024-02-26T13:03:51;18.20;;;9.73;;
62693;SDS011;48759;52.544;13.418;2024-02-26T13:06:18;11.40;;;9.07;;
62693;SDS011;48759;52.544;13.418;2024-02-26T13:08:44;11.67;;;8.13;;
62693;SDS011;48759;52.544;13.418;2024-02-26T13:11:11;11.37;;;8.30;;
62693;SDS011;48759;52.544;13.418;2024-02-26T13:13:39;12.50;;;8.17;;
62693;SDS011;48759;52.544;13.418;2024-02-26T13:16:06;10.93;;;8.40;;
62693;SDS011;48759;52.544;13.418;2024-02-26T13:18:33;10.57;;;7.70;;
62693;SDS011;48759;52.544;13.418;2024-02-26T13:21:07;8.30;;;7.40;;
62693;SDS011;48759;52.544;13.418;2024-02-26T13:23:34;10.37;;;8.20;;
62693;SDS011;48759;52.544;13.418;2024-02-26T13:26:01;9.20;;;6.83;;
62693;SDS011;48759;52.544;13.418;2024-02-26T13:28:27;7.43;;;6.13;;
62693;SDS011;48759;52.544;13.418;2024-02-26T13:30:55;11.03;;;7.37;;
62693;SDS011;48759;52.544;13.418;2024-02-26T13:33:22;10.80;;;7.50;;
62693;SDS011;48759;52.544;13.418;2024-02-26T13:35:49;8.90;;;6.60;;
62693;SDS011;48759;52.544;13.418;2024-02-26T13:38:15;7.40;;;6.60;;
62693;SDS011;48759;52.544;13.418;2024-02-26T13:40:42;9.27;;;7.07;;
62693;SDS011;48759;52.544;13.418;2024-02-26T13:43:08;7.10;;;6.13;;
62693;SDS011;48759;52.544;13.418;2024-02-26T13:45:35;7.67;;;5.60;;
62693;SDS011;48759;52.544;13.418;2024-02-26T13:48:04;8.40;;;5.43;;
62693;SDS011;48759;52.544;13.418;2024-02-26T13:50:31;8.03;;;5.20;;
62693;SDS011;48759;52.544;13.418;2024-02-26T13:52:57;9.33;;;5.30;;
62693;SDS011;48759;52.544;13.418;2024-02-26T13:55:25;7.53;;;5.73;;
62693;SDS011;48759;52.544;13.418;2024-02-26T13:57:53;6.50;;;4.77;;
62693;SDS011;48759;52.544;13.418;2024-02-26T14:00:19;6.13;;;5.10;;
62693;SDS011;48759;52.544;13.418;2024-02-26T14:02:46;6.67;;;5.10;;
62693;SDS011;48759;52.544;13.418;2024-02-26T14:05:14;7.00;;;5.50;;
62693;SDS011;48759;52.544;13.418;2024-02-26T14:07:40;7.63;;;5.93;;
62693;SDS011;48759;52.544;13.418;2024-02-26T14:10:07;8.23;;;6.10;;
62693;SDS011;48759;52.544;13.418;2024-02-26T14:12:35;11.40;;;6.07;;
62693;SDS011;48759;52.544;13.418;2024-02-26T14:15:01;7.27;;;5.80;;
62693;SDS011;48759;52.544;13.418;2024-02-26T14:17:30;7.33;;;6.50;;